PRIVATE WETTERSTATION BILLIGHEIM-ALLFELD                       ZURCK
Wetterdaten: Dienstag, 17.01.2017
Datum Zeit Temp. A. Temp. A. min Temp. A. max Feuchte A. Luftdruck Regen Wind Richtung Richtung Sonnenschein ET Solar Taupunkt Windchill Windben Empfang
17.01.2017 00:00 -8,0 C -8,0 C -7,9 C 90 % 1029,5 hPa 0,0 l/m 0,0 km/h (0 Bft) NO 45 0 min 0,000 mm 0 W/m -9,3 C -8,0 C 3,2 km/h (1 Bft) 91 %
17.01.2017 00:10 -8,1 C -8,1 C -8,0 C 90 % 1029,7 hPa 0,0 l/m 0,0 km/h (0 Bft) NO 45 0 min 0,000 mm 0 W/m -9,4 C -8,1 C 3,2 km/h (1 Bft) 100 %
17.01.2017 00:20 -8,1 C -8,1 C -8,1 C 90 % 1029,8 hPa 0,0 l/m 0,0 km/h (0 Bft) NO 45 0 min 0,000 mm 0 W/m -9,4 C -8,1 C 3,2 km/h (1 Bft) 100 %
17.01.2017 00:30 -8,1 C -8,2 C -8,1 C 91 % 1030,0 hPa 0,0 l/m 0,0 km/h (0 Bft) NO 45 0 min 0,000 mm 0 W/m -9,3 C -8,1 C 3,2 km/h (1 Bft) 100 %
17.01.2017 00:40 -8,0 C -8,1 C -8,0 C 91 % 1030,2 hPa 0,0 l/m 0,0 km/h (0 Bft) NO 45 0 min 0,000 mm 0 W/m -9,2 C -8,0 C 4,8 km/h (1 Bft) 100 %
17.01.2017 00:50 -7,9 C -8,0 C -7,9 C 91 % 1030,3 hPa 0,0 l/m 3,2 km/h (1 Bft) NO 45 0 min 0,000 mm 0 W/m -9,1 C -7,9 C 4,8 km/h (1 Bft) 100 %
17.01.2017 01:00 -7,9 C -7,9 C -7,8 C 91 % 1030,4 hPa 0,0 l/m 0,0 km/h (0 Bft) NO 45 0 min 0,000 mm 0 W/m -9,1 C -7,9 C 4,8 km/h (1 Bft) 100 %
17.01.2017 01:10 -8,1 C -8,1 C -7,9 C 90 % 1030,4 hPa 0,0 l/m 0,0 km/h (0 Bft) N 0 0 min 0,000 mm 0 W/m -9,4 C -8,1 C 0,0 km/h (0 Bft) 100 %
17.01.2017 01:20 -8,2 C -8,2 C -8,1 C 91 % 1030,5 hPa 0,0 l/m 0,0 km/h (0 Bft) N 0 0 min 0,000 mm 0 W/m -9,4 C -8,2 C 0,0 km/h (0 Bft) 100 %
17.01.2017 01:30 -8,2 C -8,2 C -8,1 C 91 % 1030,4 hPa 0,0 l/m 1,6 km/h (1 Bft) NO 45 0 min 0,000 mm 0 W/m -9,4 C -8,2 C 3,2 km/h (1 Bft) 100 %
17.01.2017 01:40 -8,3 C -8,3 C -8,2 C 91 % 1030,6 hPa 0,0 l/m 0,0 km/h (0 Bft) NO 45 0 min 0,000 mm 0 W/m -9,5 C -8,3 C 3,2 km/h (1 Bft) 91 %
17.01.2017 01:50 -8,2 C -8,3 C -8,2 C 91 % 1030,5 hPa 0,0 l/m 0,0 km/h (0 Bft) N 0 0 min 0,000 mm 0 W/m -9,4 C -8,2 C 0,0 km/h (0 Bft) 100 %
17.01.2017 02:00 -7,8 C -8,2 C -7,8 C 92 % 1030,5 hPa 0,0 l/m 0,0 km/h (0 Bft) NO 45 0 min 0,000 mm 0 W/m -8,9 C -7,8 C 1,6 km/h (1 Bft) 100 %
17.01.2017 02:10 -7,6 C -7,8 C -7,6 C 91 % 1030,7 hPa 0,0 l/m 0,0 km/h (0 Bft) NO 45 0 min 0,000 mm 0 W/m -8,8 C -7,6 C 1,6 km/h (1 Bft) 100 %
17.01.2017 02:20 -7,5 C -7,6 C -7,5 C 91 % 1031,0 hPa 0,0 l/m 0,0 km/h (0 Bft) N 0 0 min 0,000 mm 0 W/m -8,7 C -7,5 C 0,0 km/h (0 Bft) 100 %
17.01.2017 02:30 -7,4 C -7,5 C -7,4 C 91 % 1031,1 hPa 0,0 l/m 0,0 km/h (0 Bft) N 0 0 min 0,000 mm 0 W/m -8,6 C -7,4 C 0,0 km/h (0 Bft) 100 %
17.01.2017 02:40 -7,2 C -7,4 C -7,2 C 91 % 1031,3 hPa 0,0 l/m 0,0 km/h (0 Bft) N 0 0 min 0,000 mm 0 W/m -8,4 C -7,2 C 0,0 km/h (0 Bft) 99 %
17.01.2017 02:50 -7,1 C -7,2 C -7,1 C 92 % 1031,3 hPa 0,0 l/m 0,0 km/h (0 Bft) N 0 0 min 0,000 mm 0 W/m -8,2 C -7,1 C 0,0 km/h (0 Bft) 98 %
17.01.2017 03:00 -6,8 C -7,1 C -6,8 C 92 % 1031,3 hPa 0,0 l/m 0,0 km/h (0 Bft) N 0 0 min 0,000 mm 0 W/m -7,9 C -6,8 C 0,0 km/h (0 Bft) 98 %
17.01.2017 03:10 -6,6 C -6,8 C -6,6 C 91 % 1031,5 hPa 0,0 l/m 0,0 km/h (0 Bft) NO 45 0 min 0,000 mm 0 W/m -7,8 C -6,6 C 1,6 km/h (1 Bft) 97 %
17.01.2017 03:20 -6,4 C -6,6 C -6,4 C 91 % 1031,4 hPa 0,0 l/m 0,0 km/h (0 Bft) N 0 0 min 0,000 mm 0 W/m -7,6 C -6,4 C 0,0 km/h (0 Bft) 98 %
17.01.2017 03:30 -6,2 C -6,4 C -6,2 C 91 % 1031,3 hPa 0,0 l/m 0,0 km/h (0 Bft) N 0 0 min 0,000 mm 0 W/m -7,4 C -6,2 C 0,0 km/h (0 Bft) 98 %
17.01.2017 03:40 -6,2 C -6,2 C -6,2 C 91 % 1031,4 hPa 0,0 l/m 0,0 km/h (0 Bft) NO 45 0 min 0,000 mm 0 W/m -7,4 C -6,2 C 3,2 km/h (1 Bft) 97 %
17.01.2017 03:50 -6,2 C -6,2 C -6,1 C 90 % 1031,4 hPa 0,0 l/m 0,0 km/h (0 Bft) N 0 0 min 0,000 mm 0 W/m -7,6 C -6,2 C 0,0 km/h (0 Bft) 97 %
17.01.2017 04:00 -6,1 C -6,2 C -6,1 C 91 % 1031,4 hPa 0,0 l/m 0,0 km/h (0 Bft) N 0 0 min 0,000 mm 0 W/m -7,3 C -6,1 C 0,0 km/h (0 Bft) 98 %
17.01.2017 04:10 -6,1 C -6,1 C -6,1 C 91 % 1031,4 hPa 0,0 l/m 0,0 km/h (0 Bft) N 0 0 min 0,000 mm 0 W/m -7,3 C -6,1 C 0,0 km/h (0 Bft) 97 %
17.01.2017 04:20 -6,0 C -6,1 C -6,0 C 91 % 1031,4 hPa 0,0 l/m 0,0 km/h (0 Bft) N 0 0 min 0,000 mm 0 W/m -7,2 C -6,0 C 0,0 km/h (0 Bft) 98 %
17.01.2017 04:30 -6,0 C -6,0 C -6,0 C 90 % 1031,5 hPa 0,0 l/m 0,0 km/h (0 Bft) N 0 0 min 0,000 mm 0 W/m -7,4 C -6,0 C 0,0 km/h (0 Bft) 87 %
17.01.2017 04:40 -6,1 C -6,1 C -6,0 C 90 % 1031,5 hPa 0,0 l/m 0,0 km/h (0 Bft) NO 45 0 min 0,000 mm 0 W/m -7,5 C -6,1 C 4,8 km/h (1 Bft) 97 %
17.01.2017 04:50 -6,1 C -6,1 C -6,1 C 90 % 1031,5 hPa 0,0 l/m 0,0 km/h (0 Bft) N 360 0 min 0,000 mm 0 W/m -7,5 C -6,1 C 4,8 km/h (1 Bft) 97 %
17.01.2017 05:00 -6,0 C -6,1 C -6,0 C 90 % 1031,5 hPa 0,0 l/m 0,0 km/h (0 Bft) N 0 0 min 0,000 mm 0 W/m -7,4 C -6,0 C 0,0 km/h (0 Bft) 97 %
17.01.2017 05:10 -5,9 C -6,0 C -5,9 C 91 % 1031,5 hPa 0,0 l/m 0,0 km/h (0 Bft) N 0 0 min 0,000 mm 0 W/m -7,1 C -5,9 C 0,0 km/h (0 Bft) 98 %
17.01.2017 05:20 -5,9 C -5,9 C -5,9 C 90 % 1031,6 hPa 0,0 l/m 0,0 km/h (0 Bft) N 0 0 min 0,000 mm 0 W/m -7,3 C -5,9 C 0,0 km/h (0 Bft) 98 %
17.01.2017 05:30 -6,0 C -6,0 C -5,9 C 90 % 1031,6 hPa 0,0 l/m 0,0 km/h (0 Bft) N 0 0 min 0,000 mm 0 W/m -7,4 C -6,0 C 0,0 km/h (0 Bft) 89 %
17.01.2017 05:40 -6,2 C -6,2 C -6,0 C 89 % 1031,7 hPa 0,0 l/m 0,0 km/h (0 Bft) N 0 0 min 0,000 mm 0 W/m -7,7 C -6,2 C 0,0 km/h (0 Bft) 97 %
17.01.2017 05:50 -6,4 C -6,4 C -6,2 C 89 % 1031,9 hPa 0,0 l/m 0,0 km/h (0 Bft) N 0 0 min 0,000 mm 0 W/m -7,9 C -6,4 C 0,0 km/h (0 Bft) 98 %
17.01.2017 06:00 -6,6 C -6,6 C -6,4 C 89 % 1031,9 hPa 0,0 l/m 0,0 km/h (0 Bft) N 0 0 min 0,000 mm 0 W/m -8,1 C -6,6 C 0,0 km/h (0 Bft) 98 %
17.01.2017 06:10 -6,8 C -6,8 C -6,6 C 89 % 1032,0 hPa 0,0 l/m 0,0 km/h (0 Bft) N-NO 22 0 min 0,000 mm 0 W/m -8,3 C -6,8 C 9,7 km/h (2 Bft) 98 %
17.01.2017 06:20 -6,8 C -6,9 C -6,8 C 90 % 1032,0 hPa 0,0 l/m 0,0 km/h (0 Bft) N 0 0 min 0,000 mm 0 W/m -8,2 C -6,8 C 0,0 km/h (0 Bft) 89 %
17.01.2017 06:30 -6,8 C -6,9 C -6,8 C 91 % 1032,1 hPa 0,0 l/m 0,0 km/h (0 Bft) N 0 0 min 0,000 mm 0 W/m -8,0 C -6,8 C 0,0 km/h (0 Bft) 98 %
17.01.2017 06:40 -6,8 C -6,8 C -6,8 C 91 % 1032,3 hPa 0,0 l/m 0,0 km/h (0 Bft) N-NO 22 0 min 0,000 mm 0 W/m -8,0 C -6,8 C 3,2 km/h (1 Bft) 98 %
17.01.2017 06:50 -6,5 C -6,8 C -6,5 C 91 % 1032,3 hPa 0,0 l/m 0,0 km/h (0 Bft) N-NO 22 0 min 0,000 mm 0 W/m -7,7 C -6,5 C 3,2 km/h (1 Bft) 97 %
17.01.2017 07:00 -6,2 C -6,5 C -6,2 C 92 % 1032,3 hPa 0,0 l/m 0,0 km/h (0 Bft) N-NO 22 0 min 0,000 mm 0 W/m -7,3 C -6,2 C 4,8 km/h (1 Bft) 98 %
17.01.2017 07:10 -5,8 C -6,2 C -5,8 C 91 % 1032,5 hPa 0,0 l/m 0,0 km/h (0 Bft) N 360 0 min 0,000 mm 0 W/m -7,0 C -5,8 C 4,8 km/h (1 Bft) 98 %
17.01.2017 07:20 -5,6 C -5,8 C -5,6 C 91 % 1032,5 hPa 0,0 l/m 0,0 km/h (0 Bft) N 0 0 min 0,000 mm 0 W/m -6,8 C -5,6 C 0,0 km/h (0 Bft) 97 %
17.01.2017 07:30 -5,4 C -5,6 C -5,4 C 90 % 1032,6 hPa 0,0 l/m 0,0 km/h (0 Bft) N 360 0 min 0,000 mm 0 W/m -6,8 C -5,4 C 1,6 km/h (1 Bft) 97 %
17.01.2017 07:40 -5,3 C -5,4 C -5,3 C 89 % 1032,8 hPa 0,0 l/m 0,0 km/h (0 Bft) N 0 0 min 0,000 mm 0 W/m -6,8 C -5,3 C 0,0 km/h (0 Bft) 98 %
17.01.2017 07:50 -5,4 C -5,4 C -5,3 C 88 % 1032,9 hPa 0,0 l/m 0,0 km/h (0 Bft) N 360 0 min 0,000 mm 0 W/m -7,1 C -5,4 C 3,2 km/h (1 Bft) 98 %
17.01.2017 08:00 -5,5 C -5,5 C -5,4 C 88 % 1032,9 hPa 0,0 l/m 0,0 km/h (0 Bft) N 360 0 min 0,000 mm 0 W/m -7,2 C -5,5 C 3,2 km/h (1 Bft) 100 %
17.01.2017 08:10 -5,7 C -5,7 C -5,5 C 88 % 1033,1 hPa 0,0 l/m 0,0 km/h (0 Bft) N 360 0 min 0,000 mm 0 W/m -7,4 C -5,7 C 3,2 km/h (1 Bft) 100 %
17.01.2017 08:20 -5,9 C -5,9 C -5,7 C 87 % 1033,3 hPa 0,0 l/m 0,0 km/h (0 Bft) N 0 0 min 0,000 mm 9 W/m -7,7 C -5,9 C 0,0 km/h (0 Bft) 89 %
17.01.2017 08:30 -6,1 C -6,1 C -5,9 C 88 % 1033,3 hPa 0,0 l/m 0,0 km/h (0 Bft) N 0 0 min 0,000 mm 26 W/m -7,8 C -6,1 C 0,0 km/h (0 Bft) 100 %
17.01.2017 08:40 -6,1 C -6,2 C -6,1 C 89 % 1033,4 hPa 0,0 l/m 0,0 km/h (0 Bft) N 0 0 min 0,000 mm 46 W/m -7,6 C -6,1 C 0,0 km/h (0 Bft) 100 %
17.01.2017 08:50 -5,9 C -6,1 C -5,9 C 90 % 1033,4 hPa 0,0 l/m 0,0 km/h (0 Bft) N 0 0 min 0,000 mm 51 W/m -7,3 C -5,9 C 0,0 km/h (0 Bft) 100 %
17.01.2017 09:00 -5,6 C -5,9 C -5,6 C 90 % 1033,5 hPa 0,0 l/m 0,0 km/h (0 Bft) N 0 0 min 0,000 mm 67 W/m -7,0 C -5,6 C 0,0 km/h (0 Bft) 100 %
17.01.2017 09:10 -5,2 C -5,6 C -5,2 C 90 % 1033,6 hPa 0,0 l/m 0,0 km/h (0 Bft) N 0 0 min 0,000 mm 74 W/m -6,6 C -5,2 C 0,0 km/h (0 Bft) 91 %
17.01.2017 09:20 -4,9 C -5,2 C -4,9 C 90 % 1033,7 hPa 0,0 l/m 0,0 km/h (0 Bft) N 360 0 min 0,000 mm 60 W/m -6,3 C -4,9 C 1,6 km/h (1 Bft) 100 %
17.01.2017 09:30 -4,7 C -4,9 C -4,7 C 89 % 1033,8 hPa 0,0 l/m 0,0 km/h (0 Bft) N 0 0 min 0,000 mm 65 W/m -6,2 C -4,7 C 0,0 km/h (0 Bft) 100 %
17.01.2017 09:40 -4,5 C -4,7 C -4,5 C 89 % 1033,8 hPa 0,0 l/m 0,0 km/h (0 Bft) N 360 0 min 0,000 mm 81 W/m -6,0 C -4,5 C 3,2 km/h (1 Bft) 100 %
17.01.2017 09:50 -4,3 C -4,5 C -4,3 C 88 % 1033,9 hPa 0,0 l/m 0,0 km/h (0 Bft) N-NW 337 0 min 0,000 mm 88 W/m -6,0 C -4,3 C 3,2 km/h (1 Bft) 100 %
17.01.2017 10:00 -4,1 C -4,3 C -4,1 C 88 % 1033,9 hPa 0,0 l/m 0,0 km/h (0 Bft) N 0 0 min 0,025 mm 149 W/m -5,8 C -4,1 C 0,0 km/h (0 Bft) 100 %
17.01.2017 10:10 -3,3 C -4,1 C -3,3 C 88 % 1033,8 hPa 0,0 l/m 0,0 km/h (0 Bft) N-NW 337 10 min 0,000 mm 311 W/m -5,0 C -3,3 C 6,4 km/h (2 Bft) 100 %
17.01.2017 10:20 -2,8 C -3,3 C -2,8 C 83 % 1033,8 hPa 0,0 l/m 0,0 km/h (0 Bft) N 0 10 min 0,000 mm 260 W/m -5,3 C -2,8 C 0,0 km/h (0 Bft) 89 %
17.01.2017 10:30 -2,7 C -2,8 C -2,7 C 81 % 1033,8 hPa 0,0 l/m 0,0 km/h (0 Bft) N-NO 22 10 min 0,000 mm 271 W/m -5,5 C -2,7 C 6,4 km/h (2 Bft) 100 %
17.01.2017 10:40 -2,6 C -2,7 C -2,6 C 80 % 1033,8 hPa 0,0 l/m 1,6 km/h (1 Bft) N-NO 22 10 min 0,000 mm 281 W/m -5,6 C -2,6 C 6,4 km/h (2 Bft) 100 %
17.01.2017 10:50 -2,6 C -2,7 C -2,6 C 80 % 1033,9 hPa 0,0 l/m 3,2 km/h (1 Bft) NO 45 10 min 0,000 mm 290 W/m -5,6 C -2,6 C 8,0 km/h (2 Bft) 100 %
17.01.2017 11:00 -2,5 C -2,6 C -2,5 C 78 % 1033,9 hPa 0,0 l/m 1,6 km/h (1 Bft) NO 45 10 min 0,076 mm 297 W/m -5,8 C -2,5 C 6,4 km/h (2 Bft) 96 %
17.01.2017 11:20 -2,1 C -2,6 C -2,1 C 77 % 1034,0 hPa 0,0 l/m 0,0 km/h (0 Bft) NO 38 20 min 0,001 mm 318 W/m -5,6 C -2,1 C 1,6 km/h (1 Bft) 99 %
17.01.2017 11:30 -1,9 C -2,1 C -1,9 C 77 % 1033,9 hPa 0,0 l/m 2,2 km/h (1 Bft) NO 37 10 min 0,000 mm 329 W/m -5,4 C -1,9 C 8,0 km/h (2 Bft) 100 %
17.01.2017 11:40 -1,9 C -1,9 C -1,9 C 77 % 1033,9 hPa 0,0 l/m 3,4 km/h (1 Bft) N-NO 15 10 min 0,000 mm 338 W/m -5,4 C -1,9 C 11,3 km/h (2 Bft) 100 %
17.01.2017 11:50 -1,7 C -1,9 C -1,7 C 76 % 1033,9 hPa 0,0 l/m 2,8 km/h (1 Bft) NO 48 10 min 0,000 mm 248 W/m -5,4 C -1,7 C 9,7 km/h (2 Bft) 100 %
17.01.2017 12:00 -1,6 C -1,7 C -1,6 C 75 % 1033,9 hPa 0,0 l/m 5,0 km/h (1 Bft) NO 42 10 min 0,101 mm 339 W/m -5,4 C -1,6 C 16,1 km/h (3 Bft) 100 %
17.01.2017 12:10 -1,6 C -1,7 C -1,6 C 75 % 1033,9 hPa 0,0 l/m 5,6 km/h (1 Bft) O-NO 58 10 min 0,000 mm 352 W/m -5,4 C -1,6 C 16,1 km/h (3 Bft) 100 %
17.01.2017 12:20 -1,6 C -1,7 C -1,6 C 75 % 1033,8 hPa 0,0 l/m 6,2 km/h (2 Bft) N-NO 29 10 min 0,000 mm 439 W/m -5,4 C -1,6 C 19,3 km/h (3 Bft) 100 %
17.01.2017 12:30 -1,7 C -1,7 C -1,6 C 75 % 1033,8 hPa 0,0 l/m 6,1 km/h (2 Bft) NO 46 10 min 0,000 mm 339 W/m -5,5 C -1,7 C 24,1 km/h (4 Bft) 91 %
17.01.2017 12:40 -2,1 C -2,1 C -1,7 C 75 % 1033,9 hPa 0,0 l/m 5,5 km/h (1 Bft) NO 50 10 min 0,000 mm 193 W/m -5,9 C -2,1 C 17,7 km/h (3 Bft) 100 %
17.01.2017 12:50 -2,2 C -2,2 C -2,1 C 76 % 1033,9 hPa 0,0 l/m 6,1 km/h (2 Bft) NO 34 0 min 0,000 mm 120 W/m -5,8 C -2,2 C 14,5 km/h (3 Bft) 99 %
17.01.2017 13:00 -2,1 C -2,2 C -2,1 C 76 % 1034,0 hPa 0,0 l/m 5,3 km/h (1 Bft) O-NO 65 10 min 0,000 mm 329 W/m -5,7 C -2,1 C 19,3 km/h (3 Bft) 100 %
17.01.2017 13:10 -1,7 C -2,1 C -1,7 C 76 % 1033,9 hPa 0,0 l/m 6,0 km/h (2 Bft) NO 38 10 min 0,076 mm 436 W/m -5,4 C -1,7 C 14,5 km/h (3 Bft) 99 %
17.01.2017 13:20 -1,5 C -1,7 C -1,5 C 75 % 1033,8 hPa 0,0 l/m 5,6 km/h (1 Bft) NO 40 0 min 0,000 mm 127 W/m -5,3 C -1,5 C 17,7 km/h (3 Bft) 100 %
17.01.2017 13:30 -1,4 C -1,5 C -1,4 C 74 % 1033,8 hPa 0,0 l/m 4,6 km/h (1 Bft) N-NO 15 10 min 0,000 mm 418 W/m -5,4 C -1,4 C 16,1 km/h (3 Bft) 92 %
17.01.2017 13:40 -1,6 C -1,6 C -1,4 C 75 % 1033,8 hPa 0,0 l/m 4,6 km/h (1 Bft) O 81 0 min 0,000 mm 132 W/m -5,4 C -1,6 C 11,3 km/h (2 Bft) 99 %
17.01.2017 13:50 -1,8 C -1,8 C -1,6 C 77 % 1033,8 hPa 0,0 l/m 2,6 km/h (1 Bft) NO 34 10 min 0,000 mm 197 W/m -5,3 C -1,8 C 6,4 km/h (2 Bft) 100 %
17.01.2017 14:00 -1,7 C -1,8 C -1,7 C 76 % 1033,6 hPa 0,0 l/m 3,6 km/h (1 Bft) NO 40 10 min 0,000 mm 241 W/m -5,4 C -1,7 C 9,7 km/h (2 Bft) 100 %
17.01.2017 14:10 -1,7 C -1,7 C -1,7 C 76 % 1033,5 hPa 0,0 l/m 5,5 km/h (1 Bft) NO 40 10 min 0,076 mm 248 W/m -5,4 C -1,7 C 11,3 km/h (2 Bft) 99 %
17.01.2017 14:20 -1,6 C -1,7 C -1,6 C 76 % 1033,5 hPa 0,0 l/m 4,3 km/h (1 Bft) NO 42 0 min 0,001 mm 139 W/m -5,3 C -1,6 C 9,7 km/h (2 Bft) 99 %
17.01.2017 14:30 -1,9 C -1,9 C -1,6 C 76 % 1033,5 hPa 0,0 l/m 4,1 km/h (1 Bft) N-NO 33 0 min 0,000 mm 76 W/m -5,6 C -1,9 C 9,7 km/h (2 Bft) 100 %
17.01.2017 14:40 -2,2 C -2,2 C -1,9 C 77 % 1033,6 hPa 0,0 l/m 4,4 km/h (1 Bft) NO 49 0 min 0,000 mm 42 W/m -5,7 C -2,2 C 9,7 km/h (2 Bft) 99 %
17.01.2017 14:50 -2,3 C -2,3 C -2,2 C 78 % 1033,7 hPa 0,0 l/m 4,7 km/h (1 Bft) NO 42 0 min 0,000 mm 93 W/m -5,6 C -2,3 C 11,3 km/h (2 Bft) 100 %
17.01.2017 15:00 -2,3 C -2,4 C -2,3 C 80 % 1033,7 hPa 0,0 l/m 2,3 km/h (1 Bft) NO 42 0 min 0,000 mm 83 W/m -5,3 C -2,3 C 8,0 km/h (2 Bft) 100 %
17.01.2017 15:10 -2,3 C -2,3 C -2,3 C 79 % 1033,9 hPa 0,0 l/m 2,9 km/h (1 Bft) NO 45 0 min 0,050 mm 81 W/m -5,4 C -2,3 C 9,7 km/h (2 Bft) 100 %
17.01.2017 15:20 -2,2 C -2,3 C -2,2 C 78 % 1033,9 hPa 0,0 l/m 3,5 km/h (1 Bft) NO 38 0 min 0,000 mm 77 W/m -5,5 C -2,2 C 8,0 km/h (2 Bft) 100 %
17.01.2017 15:30 -2,2 C -2,2 C -2,2 C 79 % 1033,9 hPa 0,0 l/m 2,1 km/h (1 Bft) NO 40 0 min 0,000 mm 79 W/m -5,3 C -2,2 C 8,0 km/h (2 Bft) 100 %
17.01.2017 15:40 -2,2 C -2,2 C -2,2 C 79 % 1034,0 hPa 0,0 l/m 2,0 km/h (1 Bft) NO 34 0 min 0,000 mm 74 W/m -5,3 C -2,2 C 9,7 km/h (2 Bft) 100 %
17.01.2017 15:50 -2,3 C -2,3 C -2,2 C 78 % 1034,0 hPa 0,0 l/m 2,9 km/h (1 Bft) NO 42 0 min 0,000 mm 42 W/m -5,6 C -2,3 C 9,7 km/h (2 Bft) 100 %
17.01.2017 16:00 -2,6 C -2,6 C -2,3 C 79 % 1034,0 hPa 0,0 l/m 3,8 km/h (1 Bft) NO 35 0 min 0,000 mm 33 W/m -5,7 C -2,6 C 9,7 km/h (2 Bft) 100 %
17.01.2017 16:10 -2,7 C -2,7 C -2,6 C 79 % 1034,0 hPa 0,0 l/m 3,6 km/h (1 Bft) NO 40 0 min 0,025 mm 18 W/m -5,8 C -2,7 C 9,7 km/h (2 Bft) 100 %
17.01.2017 16:20 -2,9 C -2,9 C -2,7 C 80 % 1034,0 hPa 0,0 l/m 1,6 km/h (1 Bft) NO 35 0 min 0,001 mm 25 W/m -5,9 C -2,9 C 8,0 km/h (2 Bft) 100 %
17.01.2017 16:30 -3,1 C -3,1 C -2,9 C 80 % 1034,0 hPa 0,0 l/m 0,1 km/h (0 Bft) NO 37 0 min 0,000 mm 12 W/m -6,0 C -3,1 C 4,8 km/h (1 Bft) 100 %
17.01.2017 16:40 -3,2 C -3,2 C -3,1 C 80 % 1034,0 hPa 0,0 l/m 1,0 km/h (0 Bft) N-NO 14 0 min 0,000 mm 7 W/m -6,1 C -3,2 C 6,4 km/h (2 Bft) 100 %
17.01.2017 16:50 -3,4 C -3,4 C -3,2 C 80 % 1034,1 hPa 0,0 l/m 0,4 km/h (0 Bft) N-NO 32 0 min 0,000 mm 5 W/m -6,3 C -3,4 C 6,4 km/h (2 Bft) 100 %
17.01.2017 17:00 -3,6 C -3,6 C -3,4 C 81 % 1034,2 hPa 0,0 l/m 0,3 km/h (0 Bft) N-NO 32 0 min 0,000 mm 0 W/m -6,4 C -3,6 C 8,0 km/h (2 Bft) 100 %
17.01.2017 17:10 -3,7 C -3,7 C -3,6 C 81 % 1034,2 hPa 0,0 l/m 0,0 km/h (0 Bft) NO 36 0 min 0,000 mm 0 W/m -6,5 C -3,7 C 0,0 km/h (0 Bft) 98 %
17.01.2017 17:20 -3,9 C -3,9 C -3,7 C 81 % 1034,2 hPa 0,0 l/m 0,0 km/h (0 Bft) NO 36 0 min 0,000 mm 0 W/m -6,7 C -3,9 C 3,2 km/h (1 Bft) 98 %
17.01.2017 17:30 -4,2 C -4,2 C -3,9 C 81 % 1034,3 hPa 0,0 l/m 0,0 km/h (0 Bft) NO 36 0 min 0,000 mm 0 W/m -7,0 C -4,2 C 0,0 km/h (0 Bft) 99 %
17.01.2017 17:40 -4,4 C -4,4 C -4,2 C 82 % 1034,3 hPa 0,0 l/m 0,3 km/h (0 Bft) NO 38 0 min 0,000 mm 0 W/m -7,0 C -4,4 C 4,8 km/h (1 Bft) 100 %
17.01.2017 17:50 -4,4 C -4,4 C -4,4 C 82 % 1034,4 hPa 0,0 l/m 0,2 km/h (0 Bft) NO 38 0 min 0,000 mm 0 W/m -7,0 C -4,4 C 4,8 km/h (1 Bft) 99 %
17.01.2017 18:00 -4,4 C -4,4 C -4,4 C 83 % 1034,5 hPa 0,0 l/m 0,3 km/h (0 Bft) NO 38 0 min 0,000 mm 0 W/m -6,8 C -4,4 C 4,8 km/h (1 Bft) 97 %
17.01.2017 18:10 -4,4 C -4,4 C -4,4 C 82 % 1034,6 hPa 0,0 l/m 0,7 km/h (0 Bft) NO 38 0 min 0,000 mm 0 W/m -7,0 C -4,4 C 4,8 km/h (1 Bft) 98 %
17.01.2017 18:20 -4,4 C -4,4 C -4,4 C 82 % 1034,6 hPa 0,0 l/m 0,4 km/h (0 Bft) NO 38 0 min 0,000 mm 0 W/m -7,0 C -4,4 C 4,8 km/h (1 Bft) 97 %
17.01.2017 18:30 -4,4 C -4,4 C -4,4 C 82 % 1034,7 hPa 0,0 l/m 0,0 km/h (0 Bft) NO 38 0 min 0,000 mm 0 W/m -7,0 C -4,4 C 3,2 km/h (1 Bft) 99 %
17.01.2017 18:40 -4,6 C -4,6 C -4,4 C 82 % 1034,7 hPa 0,0 l/m 0,0 km/h (0 Bft) NO 40 0 min 0,000 mm 0 W/m -7,2 C -4,6 C 3,2 km/h (1 Bft) 100 %
17.01.2017 18:50 -4,7 C -4,7 C -4,6 C 83 % 1034,7 hPa 0,0 l/m 0,8 km/h (0 Bft) NO 38 0 min 0,000 mm 0 W/m -7,1 C -4,7 C 4,8 km/h (1 Bft) 100 %
17.01.2017 19:00 -4,7 C -4,7 C -4,6 C 82 % 1034,7 hPa 0,0 l/m 0,5 km/h (0 Bft) NO 37 0 min 0,000 mm 0 W/m -7,3 C -4,7 C 4,8 km/h (1 Bft) 100 %
17.01.2017 19:10 -4,8 C -4,8 C -4,7 C 82 % 1034,7 hPa 0,0 l/m 0,4 km/h (0 Bft) NO 37 0 min 0,000 mm 0 W/m -7,4 C -4,8 C 4,8 km/h (1 Bft) 99 %
17.01.2017 19:20 -4,9 C -4,9 C -4,8 C 83 % 1034,8 hPa 0,0 l/m 0,1 km/h (0 Bft) NO 37 0 min 0,000 mm 0 W/m -7,3 C -4,9 C 4,8 km/h (1 Bft) 99 %
17.01.2017 19:30 -4,8 C -4,9 C -4,8 C 83 % 1035,0 hPa 0,0 l/m 0,2 km/h (0 Bft) NO 36 0 min 0,000 mm 0 W/m -7,2 C -4,8 C 4,8 km/h (1 Bft) 99 %
17.01.2017 19:40 -4,8 C -4,8 C -4,8 C 83 % 1035,0 hPa 0,0 l/m 0,2 km/h (0 Bft) NO 36 0 min 0,000 mm 0 W/m -7,2 C -4,8 C 4,8 km/h (1 Bft) 100 %
17.01.2017 19:50 -4,9 C -4,9 C -4,8 C 83 % 1035,2 hPa 0,0 l/m 0,1 km/h (0 Bft) NO 36 0 min 0,000 mm 0 W/m -7,3 C -4,9 C 3,2 km/h (1 Bft) 91 %
17.01.2017 20:00 -5,1 C -5,1 C -4,9 C 83 % 1035,3 hPa 0,0 l/m 0,0 km/h (0 Bft) NO 36 0 min 0,000 mm 0 W/m -7,5 C -5,1 C 0,0 km/h (0 Bft) 98 %
17.01.2017 20:10 -5,3 C -5,3 C -5,1 C 83 % 1035,4 hPa 0,0 l/m 0,0 km/h (0 Bft) NO 34 0 min 0,000 mm 0 W/m -7,7 C -5,3 C 1,6 km/h (1 Bft) 100 %
17.01.2017 20:20 -5,4 C -5,4 C -5,3 C 83 % 1035,3 hPa 0,0 l/m 0,2 km/h (0 Bft) NO 34 0 min 0,000 mm 0 W/m -7,8 C -5,4 C 4,8 km/h (1 Bft) 92 %
17.01.2017 20:30 -5,5 C -5,5 C -5,4 C 83 % 1035,3 hPa 0,0 l/m 0,0 km/h (0 Bft) NO 34 0 min 0,000 mm 0 W/m -7,9 C -5,5 C 0,0 km/h (0 Bft) 100 %
17.01.2017 20:40 -5,6 C -5,6 C -5,5 C 84 % 1035,3 hPa 0,0 l/m 0,3 km/h (0 Bft) NO 34 0 min 0,000 mm 0 W/m -7,9 C -5,6 C 3,2 km/h (1 Bft) 100 %
17.01.2017 20:50 -5,3 C -5,6 C -5,3 C 85 % 1035,4 hPa 0,0 l/m 0,4 km/h (0 Bft) NO 34 0 min 0,000 mm 0 W/m -7,4 C -5,3 C 6,4 km/h (2 Bft) 91 %
17.01.2017 21:00 -4,9 C -5,3 C -4,9 C 84 % 1035,5 hPa 0,0 l/m 2,3 km/h (1 Bft) NO 34 0 min 0,000 mm 0 W/m -7,2 C -4,9 C 11,3 km/h (2 Bft) 100 %
17.01.2017 21:10 -4,7 C -4,9 C -4,6 C 84 % 1035,4 hPa 0,0 l/m 1,6 km/h (1 Bft) NO 45 0 min 0,000 mm 0 W/m -7,0 C -4,7 C 8,0 km/h (2 Bft) 100 %
17.01.2017 21:20 -4,6 C -4,7 C -4,6 C 83 % 1035,5 hPa 0,0 l/m 1,6 km/h (1 Bft) NO 45 0 min 0,000 mm 0 W/m -7,0 C -4,6 C 8,0 km/h (2 Bft) 100 %
17.01.2017 21:30 -4,7 C -4,7 C -4,6 C 83 % 1035,5 hPa 0,0 l/m 1,6 km/h (1 Bft) NO 45 0 min 0,000 mm 0 W/m -7,1 C -4,7 C 6,4 km/h (2 Bft) 84 %
17.01.2017 21:40 -4,7 C -4,7 C -4,7 C 84 % 1035,5 hPa 0,0 l/m 1,6 km/h (1 Bft) NO 45 0 min 0,000 mm 0 W/m -7,0 C -4,7 C 6,4 km/h (2 Bft) 100 %
17.01.2017 21:50 -4,7 C -4,7 C -4,7 C 84 % 1035,6 hPa 0,0 l/m 1,6 km/h (1 Bft) NO 45 0 min 0,000 mm 0 W/m -7,0 C -4,7 C 6,4 km/h (2 Bft) 100 %
17.01.2017 22:00 -4,7 C -4,7 C -4,7 C 84 % 1035,6 hPa 0,0 l/m 1,6 km/h (1 Bft) NO 45 0 min 0,000 mm 0 W/m -7,0 C -4,7 C 6,4 km/h (2 Bft) 100 %
17.01.2017 22:10 -4,6 C -4,7 C -4,6 C 85 % 1035,6 hPa 0,0 l/m 0,0 km/h (0 Bft) NO 45 0 min 0,000 mm 0 W/m -6,7 C -4,6 C 4,8 km/h (1 Bft) 100 %
17.01.2017 22:20 -4,5 C -4,6 C -4,5 C 85 % 1035,7 hPa 0,0 l/m 0,0 km/h (0 Bft) N 0 0 min 0,000 mm 0 W/m -6,6 C -4,5 C 0,0 km/h (0 Bft) 100 %
17.01.2017 22:30 -4,4 C -4,5 C -4,4 C 84 % 1035,8 hPa 0,0 l/m 0,0 km/h (0 Bft) NO 45 0 min 0,000 mm 0 W/m -6,7 C -4,4 C 4,8 km/h (1 Bft) 90 %
17.01.2017 22:40 -4,4 C -4,4 C -4,4 C 85 % 1035,8 hPa 0,0 l/m 0,0 km/h (0 Bft) NO 45 0 min 0,000 mm 0 W/m -6,5 C -4,4 C 4,8 km/h (1 Bft) 100 %
17.01.2017 22:50 -4,3 C -4,4 C -4,3 C 85 % 1035,7 hPa 0,0 l/m 0,0 km/h (0 Bft) NO 45 0 min 0,000 mm 0 W/m -6,4 C -4,3 C 6,4 km/h (2 Bft) 100 %
17.01.2017 23:00 -4,2 C -4,3 C -4,2 C 84 % 1035,7 hPa 0,0 l/m 0,0 km/h (0 Bft) NO 45 0 min 0,000 mm 0 W/m -6,5 C -4,2 C 6,4 km/h (2 Bft) 100 %
17.01.2017 23:10 -4,2 C -4,2 C -4,2 C 84 % 1035,8 hPa 0,0 l/m 0,0 km/h (0 Bft) NO 45 0 min 0,000 mm 0 W/m -6,5 C -4,2 C 4,8 km/h (1 Bft) 100 %
17.01.2017 23:20 -4,2 C -4,2 C -4,2 C 84 % 1035,7 hPa 0,0 l/m 0,0 km/h (0 Bft) N 360 0 min 0,000 mm 0 W/m -6,5 C -4,2 C 6,4 km/h (2 Bft) 100 %
17.01.2017 23:30 -4,1 C -4,2 C -4,1 C 84 % 1035,7 hPa 0,0 l/m 1,6 km/h (1 Bft) N-NO 22 0 min 0,000 mm 0 W/m -6,4 C -4,1 C 8,0 km/h (2 Bft) 90 %
17.01.2017 23:40 -4,1 C -4,1 C -4,1 C 84 % 1035,8 hPa 0,0 l/m 0,0 km/h (0 Bft) N 0 0 min 0,000 mm 0 W/m -6,4 C -4,1 C 0,0 km/h (0 Bft) 100 %
17.01.2017 23:50 -4,0 C -4,1 C -4,0 C 84 % 1035,9 hPa 0,0 l/m 1,6 km/h (1 Bft) NO 45 0 min 0,000 mm 0 W/m -6,3 C -4,0 C 8,0 km/h (2 Bft) 100 %
_ Min-Zeit 01:40 01:40 01:40 13:30 00:00 - 00:00 - - - - - 01:40 01:40 01:10 21:30
Minimum _ -8,3 C -8,3 C -8,2 C 74 % 1029,5 hPa - 0,0 km/h (0 Bft) - - - - - -9,5 C -8,3 C 0,0 km/h (0 Bft) 84 %
_ Max-Zeit 13:30 13:30 13:30 02:00 23:50 00:00 12:20 - - 11:20 12:00 12:20 10:10 13:30 12:30 00:10
Maximum _ -1,4 C -1,5 C -1,4 C 92 % 1035,9 hPa 0,0 l/m 6,2 km/h
N-NO (2 Bft)
- - 20 min 0,101 mm 439 W/m -5,0 C -1,4 C 24,1 km/h
N-NO (4 Bft)
100 %
Durchschnitt _ -4,7 C -4,8 C -4,7 C 85 % 1033,4 hPa #0,0 l/m 1,1 km/h (1 Bft) NO - #3:40 h #0,432 mm 166 W/m -6,9 C -4,7 C 5,0 km/h (1 Bft) 98 %
PRIVATE WETTERSTATION BILLIGHEIM-ALLFELD - www.neckar-odenwald-wetter.de - Holger Sonntag